Terminal Aerodrome Forecast
Issued by NWS Tuscon, AZ

Home | Current Version | Previous Version | Text Only | Print | Product List | Glossary On
Versions: 1 2 3 4 5 6 7 8 9 10 11 12
000
FTUS45 KTWC 301100
TAFTUS
TAF
KTUS 301120Z 3012/3112 14007KT P6SM FEW150 BKN200
     FM302000 30008KT P6SM SCT110 BKN150
     FM310600 14006KT P6SM SCT110 SCT150=

USA.gov is the U.S. government's official web portal to all federal, state and local government web resources and services.